sensor_id;sensor_type;location;lat;lon;timestamp;temperature;humidity
52301;DHT22;38528;53.214;6.562;2022-10-16T00:01:24;14.00;99.90
52301;DHT22;38528;53.214;6.562;2022-10-16T00:03:50;14.60;99.90
52301;DHT22;38528;53.214;6.562;2022-10-16T00:06:18;13.40;99.90
52301;DHT22;38528;53.214;6.562;2022-10-16T00:08:44;14.50;99.90
52301;DHT22;38528;53.214;6.562;2022-10-16T00:11:16;14.40;99.90
52301;DHT22;38528;53.214;6.562;2022-10-16T00:13:43;14.50;99.90
52301;DHT22;38528;53.214;6.562;2022-10-16T00:16:11;13.90;99.90
52301;DHT22;38528;53.214;6.562;2022-10-16T00:18:37;14.10;99.90
52301;DHT22;38528;53.214;6.562;2022-10-16T00:21:08;13.30;99.90
52301;DHT22;38528;53.214;6.562;2022-10-16T00:23:34;13.30;99.90
52301;DHT22;38528;53.214;6.562;2022-10-16T00:26:03;14.00;99.90
52301;DHT22;38528;53.214;6.562;2022-10-16T00:28:29;13.30;99.90
52301;DHT22;38528;53.214;6.562;2022-10-16T00:30:55;12.90;99.90
52301;DHT22;38528;53.214;6.562;2022-10-16T00:33:21;14.00;99.90
52301;DHT22;38528;53.214;6.562;2022-10-16T00:35:47;13.30;99.90
52301;DHT22;38528;53.214;6.562;2022-10-16T00:38:12;13.30;99.90
52301;DHT22;38528;53.214;6.562;2022-10-16T00:40:38;14.00;99.90
52301;DHT22;38528;53.214;6.562;2022-10-16T00:46:01;13.20;99.90
52301;DHT22;38528;53.214;6.562;2022-10-16T00:48:27;13.70;99.90
52301;DHT22;38528;53.214;6.562;2022-10-16T00:50:53;13.30;99.90
52301;DHT22;38528;53.214;6.562;2022-10-16T00:53:19;13.70;99.90
52301;DHT22;38528;53.214;6.562;2022-10-16T00:55:46;13.30;99.90
52301;DHT22;38528;53.214;6.562;2022-10-16T00:58:12;13.40;99.90
52301;DHT22;38528;53.214;6.562;2022-10-16T01:00:38;13.40;99.90
52301;DHT22;38528;53.214;6.562;2022-10-16T01:03:23;13.50;99.90
52301;DHT22;38528;53.214;6.562;2022-10-16T01:05:59;13.40;99.90
52301;DHT22;38528;53.214;6.562;2022-10-16T01:08:34;13.40;99.90
52301;DHT22;38528;53.214;6.562;2022-10-16T01:11:17;13.40;99.90
52301;DHT22;38528;53.214;6.562;2022-10-16T01:13:50;13.40;99.90
52301;DHT22;38528;53.214;6.562;2022-10-16T01:16:36;13.90;99.90
52301;DHT22;38528;53.214;6.562;2022-10-16T01:19:16;13.30;99.90
52301;DHT22;38528;53.214;6.562;2022-10-16T01:21:45;13.80;99.90
52301;DHT22;38528;53.214;6.562;2022-10-16T01:24:40;13.40;99.90
52301;DHT22;38528;53.214;6.562;2022-10-16T01:27:15;13.40;99.90
52301;DHT22;38528;53.214;6.562;2022-10-16T01:29:54;13.40;99.90
52301;DHT22;38528;53.214;6.562;2022-10-16T01:38:10;13.40;99.90
52301;DHT22;38528;53.214;6.562;2022-10-16T01:40:40;13.70;99.90
52301;DHT22;38528;53.214;6.562;2022-10-16T01:43:14;13.40;99.90
52301;DHT22;38528;53.214;6.562;2022-10-16T01:45:41;13.30;99.90
52301;DHT22;38528;53.214;6.562;2022-10-16T01:48:12;13.40;99.90
52301;DHT22;38528;53.214;6.562;2022-10-16T01:50:40;14.40;99.90
52301;DHT22;38528;53.214;6.562;2022-10-16T01:53:08;14.30;99.90
52301;DHT22;38528;53.214;6.562;2022-10-16T01:55:40;13.40;99.90
52301;DHT22;38528;53.214;6.562;2022-10-16T01:58:12;14.70;99.90
52301;DHT22;38528;53.214;6.562;2022-10-16T02:00:40;13.40;99.90
52301;DHT22;38528;53.214;6.562;2022-10-16T02:03:07;13.50;99.90
52301;DHT22;38528;53.214;6.562;2022-10-16T02:05:45;13.40;99.90
52301;DHT22;38528;53.214;6.562;2022-10-16T02:08:11;13.40;99.90
52301;DHT22;38528;53.214;6.562;2022-10-16T02:10:38;14.20;99.90
52301;DHT22;38528;53.214;6.562;2022-10-16T02:13:09;13.40;99.90
52301;DHT22;38528;53.214;6.562;2022-10-16T02:15:35;13.40;99.90
52301;DHT22;38528;53.214;6.562;2022-10-16T02:18:03;13.40;99.90
52301;DHT22;38528;53.214;6.562;2022-10-16T02:20:55;14.50;99.90
52301;DHT22;38528;53.214;6.562;2022-10-16T02:23:29;13.40;99.90
52301;DHT22;38528;53.214;6.562;2022-10-16T02:25:56;13.50;99.90
52301;DHT22;38528;53.214;6.562;2022-10-16T02:28:28;13.50;99.90
52301;DHT22;38528;53.214;6.562;2022-10-16T02:30:59;13.50;99.90
52301;DHT22;38528;53.214;6.562;2022-10-16T02:33:29;13.50;99.90
52301;DHT22;38528;53.214;6.562;2022-10-16T02:35:56;13.50;99.90
52301;DHT22;38528;53.214;6.562;2022-10-16T02:38:23;13.50;99.90
52301;DHT22;38528;53.214;6.562;2022-10-16T02:40:49;13.50;99.90
52301;DHT22;38528;53.214;6.562;2022-10-16T02:43:15;13.80;99.90
52301;DHT22;38528;53.214;6.562;2022-10-16T02:45:41;13.40;99.90
52301;DHT22;38528;53.214;6.562;2022-10-16T02:48:07;14.00;99.90
52301;DHT22;38528;53.214;6.562;2022-10-16T02:50:33;13.50;99.90
52301;DHT22;38528;53.214;6.562;2022-10-16T02:52:58;14.40;99.90
52301;DHT22;38528;53.214;6.562;2022-10-16T02:55:24;13.60;99.90
52301;DHT22;38528;53.214;6.562;2022-10-16T02:57:50;14.70;99.90
52301;DHT22;38528;53.214;6.562;2022-10-16T03:00:17;13.60;99.90
52301;DHT22;38528;53.214;6.562;2022-10-16T03:02:43;13.60;99.90
52301;DHT22;38528;53.214;6.562;2022-10-16T03:05:09;13.70;99.90
52301;DHT22;38528;53.214;6.562;2022-10-16T03:07:35;13.70;99.90
52301;DHT22;38528;53.214;6.562;2022-10-16T03:10:01;13.70;99.90
52301;DHT22;38528;53.214;6.562;2022-10-16T03:12:30;14.20;99.90
52301;DHT22;38528;53.214;6.562;2022-10-16T03:14:56;14.20;99.90
52301;DHT22;38528;53.214;6.562;2022-10-16T03:17:22;13.70;99.90
52301;DHT22;38528;53.214;6.562;2022-10-16T03:19:48;13.80;99.90
52301;DHT22;38528;53.214;6.562;2022-10-16T03:22:13;14.80;99.90
52301;DHT22;38528;53.214;6.562;2022-10-16T03:24:39;13.80;99.90
52301;DHT22;38528;53.214;6.562;2022-10-16T03:27:05;13.90;99.90
52301;DHT22;38528;53.214;6.562;2022-10-16T03:29:30;14.90;99.90
52301;DHT22;38528;53.214;6.562;2022-10-16T03:31:57;13.80;99.90
52301;DHT22;38528;53.214;6.562;2022-10-16T03:34:23;13.90;99.90
52301;DHT22;38528;53.214;6.562;2022-10-16T03:36:48;13.90;99.90
52301;DHT22;38528;53.214;6.562;2022-10-16T03:39:14;13.90;99.90
52301;DHT22;38528;53.214;6.562;2022-10-16T03:41:39;13.90;99.90
52301;DHT22;38528;53.214;6.562;2022-10-16T03:44:05;14.90;99.90
52301;DHT22;38528;53.214;6.562;2022-10-16T03:46:31;13.80;99.90
52301;DHT22;38528;53.214;6.562;2022-10-16T03:48:57;13.90;99.90
52301;DHT22;38528;53.214;6.562;2022-10-16T03:51:22;13.70;99.90
52301;DHT22;38528;53.214;6.562;2022-10-16T03:53:48;14.50;99.90
52301;DHT22;38528;53.214;6.562;2022-10-16T03:56:14;14.70;99.90
52301;DHT22;38528;53.214;6.562;2022-10-16T03:58:39;14.00;99.90
52301;DHT22;38528;53.214;6.562;2022-10-16T04:01:05;14.50;99.90
52301;DHT22;38528;53.214;6.562;2022-10-16T04:03:30;13.70;99.90
52301;DHT22;38528;53.214;6.562;2022-10-16T04:05:56;14.10;99.90
52301;DHT22;38528;53.214;6.562;2022-10-16T04:08:22;13.80;99.90
52301;DHT22;38528;53.214;6.562;2022-10-16T04:10:47;13.60;99.90
52301;DHT22;38528;53.214;6.562;2022-10-16T04:13:13;13.60;99.90
52301;DHT22;38528;53.214;6.562;2022-10-16T04:15:39;13.50;99.90
52301;DHT22;38528;53.214;6.562;2022-10-16T04:18:05;14.20;99.90
52301;DHT22;38528;53.214;6.562;2022-10-16T04:20:31;14.80;99.90
52301;DHT22;38528;53.214;6.562;2022-10-16T04:22:57;14.40;99.90
52301;DHT22;38528;53.214;6.562;2022-10-16T04:25:22;13.50;99.90
52301;DHT22;38528;53.214;6.562;2022-10-16T04:27:48;14.20;99.90
52301;DHT22;38528;53.214;6.562;2022-10-16T04:30:14;13.50;99.90
52301;DHT22;38528;53.214;6.562;2022-10-16T04:32:40;13.40;99.90
52301;DHT22;38528;53.214;6.562;2022-10-16T04:35:06;13.50;99.90
52301;DHT22;38528;53.214;6.562;2022-10-16T04:37:32;13.50;99.90
52301;DHT22;38528;53.214;6.562;2022-10-16T04:39:57;13.40;99.90
52301;DHT22;38528;53.214;6.562;2022-10-16T04:42:23;13.40;99.90
52301;DHT22;38528;53.214;6.562;2022-10-16T04:44:49;14.10;99.90
52301;DHT22;38528;53.214;6.562;2022-10-16T04:47:14;13.40;99.90
52301;DHT22;38528;53.214;6.562;2022-10-16T04:49:40;13.40;99.90
52301;DHT22;38528;53.214;6.562;2022-10-16T04:52:06;13.40;99.90
52301;DHT22;38528;53.214;6.562;2022-10-16T04:54:31;14.70;99.90
52301;DHT22;38528;53.214;6.562;2022-10-16T04:56:57;13.40;99.90
52301;DHT22;38528;53.214;6.562;2022-10-16T04:59:23;13.40;99.90
52301;DHT22;38528;53.214;6.562;2022-10-16T05:01:49;13.40;99.90
52301;DHT22;38528;53.214;6.562;2022-10-16T05:04:15;13.40;99.90
52301;DHT22;38528;53.214;6.562;2022-10-16T05:06:41;14.40;99.90
52301;DHT22;38528;53.214;6.562;2022-10-16T05:09:07;13.40;99.90
52301;DHT22;38528;53.214;6.562;2022-10-16T05:11:33;13.50;99.90
52301;DHT22;38528;53.214;6.562;2022-10-16T05:13:59;13.40;99.90
52301;DHT22;38528;53.214;6.562;2022-10-16T05:16:25;13.50;99.90
52301;DHT22;38528;53.214;6.562;2022-10-16T05:18:52;13.50;99.90
52301;DHT22;38528;53.214;6.562;2022-10-16T05:21:18;14.50;99.90
52301;DHT22;38528;53.214;6.562;2022-10-16T05:23:43;13.40;99.90
52301;DHT22;38528;53.214;6.562;2022-10-16T05:26:09;13.40;99.90
52301;DHT22;38528;53.214;6.562;2022-10-16T05:28:34;13.50;99.90
52301;DHT22;38528;53.214;6.562;2022-10-16T05:31:05;13.40;99.90
52301;DHT22;38528;53.214;6.562;2022-10-16T05:33:31;13.40;99.90
52301;DHT22;38528;53.214;6.562;2022-10-16T05:35:56;13.40;99.90
52301;DHT22;38528;53.214;6.562;2022-10-16T05:38:22;14.10;99.90
52301;DHT22;38528;53.214;6.562;2022-10-16T05:40:51;13.30;99.90
52301;DHT22;38528;53.214;6.562;2022-10-16T05:43:18;13.40;99.90
52301;DHT22;38528;53.214;6.562;2022-10-16T05:45:43;13.50;99.90
52301;DHT22;38528;53.214;6.562;2022-10-16T05:48:09;13.70;99.90
52301;DHT22;38528;53.214;6.562;2022-10-16T05:50:34;13.60;99.90
52301;DHT22;38528;53.214;6.562;2022-10-16T05:53:00;13.90;99.90
52301;DHT22;38528;53.214;6.562;2022-10-16T05:55:26;13.90;99.90
52301;DHT22;38528;53.214;6.562;2022-10-16T05:57:54;13.30;99.90
52301;DHT22;38528;53.214;6.562;2022-10-16T06:00:20;13.30;99.90
52301;DHT22;38528;53.214;6.562;2022-10-16T06:02:45;14.30;99.90
52301;DHT22;38528;53.214;6.562;2022-10-16T06:05:11;14.30;99.90
52301;DHT22;38528;53.214;6.562;2022-10-16T06:07:37;13.50;99.90
52301;DHT22;38528;53.214;6.562;2022-10-16T06:10:03;13.30;99.90
52301;DHT22;38528;53.214;6.562;2022-10-16T06:12:29;13.40;99.90
52301;DHT22;38528;53.214;6.562;2022-10-16T06:14:55;14.00;99.90
52301;DHT22;38528;53.214;6.562;2022-10-16T06:17:20;13.40;99.90
52301;DHT22;38528;53.214;6.562;2022-10-16T06:19:46;13.40;99.90
52301;DHT22;38528;53.214;6.562;2022-10-16T06:22:13;14.00;99.90
52301;DHT22;38528;53.214;6.562;2022-10-16T06:24:38;13.40;99.90
52301;DHT22;38528;53.214;6.562;2022-10-16T06:27:04;13.40;99.90
52301;DHT22;38528;53.214;6.562;2022-10-16T06:29:30;13.30;99.90
52301;DHT22;38528;53.214;6.562;2022-10-16T06:31:56;13.40;99.90
52301;DHT22;38528;53.214;6.562;2022-10-16T06:34:21;13.50;99.90
52301;DHT22;38528;53.214;6.562;2022-10-16T06:36:47;13.50;99.90
52301;DHT22;38528;53.214;6.562;2022-10-16T06:39:12;14.10;99.90
52301;DHT22;38528;53.214;6.562;2022-10-16T06:41:38;13.60;99.90
52301;DHT22;38528;53.214;6.562;2022-10-16T06:44:07;14.70;99.90
52301;DHT22;38528;53.214;6.562;2022-10-16T06:46:33;13.60;99.90
52301;DHT22;38528;53.214;6.562;2022-10-16T06:48:59;14.70;99.90
52301;DHT22;38528;53.214;6.562;2022-10-16T06:51:25;13.60;99.90
52301;DHT22;38528;53.214;6.562;2022-10-16T06:53:53;13.70;99.90
52301;DHT22;38528;53.214;6.562;2022-10-16T06:56:22;13.80;99.90
52301;DHT22;38528;53.214;6.562;2022-10-16T06:58:49;14.20;99.90
52301;DHT22;38528;53.214;6.562;2022-10-16T07:01:17;13.70;99.90
52301;DHT22;38528;53.214;6.562;2022-10-16T07:03:44;13.70;99.90
52301;DHT22;38528;53.214;6.562;2022-10-16T07:06:12;13.90;99.90
52301;DHT22;38528;53.214;6.562;2022-10-16T07:08:40;13.80;99.90
52301;DHT22;38528;53.214;6.562;2022-10-16T07:11:11;13.70;99.90
52301;DHT22;38528;53.214;6.562;2022-10-16T07:13:37;14.90;99.90
52301;DHT22;38528;53.214;6.562;2022-10-16T07:16:08;13.80;99.90
52301;DHT22;38528;53.214;6.562;2022-10-16T07:18:35;13.80;99.90
52301;DHT22;38528;53.214;6.562;2022-10-16T07:23:30;13.80;99.90
52301;DHT22;38528;53.214;6.562;2022-10-16T07:25:56;13.80;99.90
52301;DHT22;38528;53.214;6.562;2022-10-16T07:28:22;13.90;99.90
52301;DHT22;38528;53.214;6.562;2022-10-16T07:30:48;13.90;99.90
52301;DHT22;38528;53.214;6.562;2022-10-16T07:33:14;13.90;99.90
52301;DHT22;38528;53.214;6.562;2022-10-16T07:35:50;14.30;99.90
52301;DHT22;38528;53.214;6.562;2022-10-16T07:38:16;14.00;99.90
52301;DHT22;38528;53.214;6.562;2022-10-16T07:40:45;15.20;99.90
52301;DHT22;38528;53.214;6.562;2022-10-16T07:43:11;14.00;99.90
52301;DHT22;38528;53.214;6.562;2022-10-16T07:45:36;14.90;99.90
52301;DHT22;38528;53.214;6.562;2022-10-16T07:48:02;15.30;99.90
52301;DHT22;38528;53.214;6.562;2022-10-16T07:50:28;13.90;99.90
52301;DHT22;38528;53.214;6.562;2022-10-16T07:52:54;13.90;99.90
52301;DHT22;38528;53.214;6.562;2022-10-16T07:55:19;14.00;99.90
52301;DHT22;38528;53.214;6.562;2022-10-16T07:57:45;14.80;99.90
52301;DHT22;38528;53.214;6.562;2022-10-16T08:00:11;15.00;99.90
52301;DHT22;38528;53.214;6.562;2022-10-16T08:02:39;14.10;99.90
52301;DHT22;38528;53.214;6.562;2022-10-16T08:05:06;15.40;99.90
52301;DHT22;38528;53.214;6.562;2022-10-16T08:07:32;14.00;99.90
52301;DHT22;38528;53.214;6.562;2022-10-16T08:09:57;14.10;99.90
52301;DHT22;38528;53.214;6.562;2022-10-16T08:12:27;14.80;99.90
52301;DHT22;38528;53.214;6.562;2022-10-16T08:14:52;14.30;99.90
52301;DHT22;38528;53.214;6.562;2022-10-16T11:09:17;14.50;99.90
52301;DHT22;38528;53.214;6.562;2022-10-16T11:11:47;24.70;98.90
52301;DHT22;38528;53.214;6.562;2022-10-16T11:17:05;25.70;96.10
52301;DHT22;38528;53.214;6.562;2022-10-16T11:19:39;26.40;93.80
52301;DHT22;38528;53.214;6.562;2022-10-16T11:24:42;27.20;92.30
52301;DHT22;38528;53.214;6.562;2022-10-16T11:27:15;27.60;90.90
52301;DHT22;38528;53.214;6.562;2022-10-16T11:29:52;28.10;90.00
52301;DHT22;38528;53.214;6.562;2022-10-16T11:32:34;28.30;88.50
52301;DHT22;38528;53.214;6.562;2022-10-16T11:35:10;28.40;87.00
52301;DHT22;38528;53.214;6.562;2022-10-16T11:37:40;28.40;86.20
52301;DHT22;38528;53.214;6.562;2022-10-16T11:40:24;28.80;85.20
52301;DHT22;38528;53.214;6.562;2022-10-16T11:42:59;29.30;83.50
52301;DHT22;38528;53.214;6.562;2022-10-16T11:48:27;30.50;79.70
52301;DHT22;38528;53.214;6.562;2022-10-16T11:51:23;31.10;79.00
52301;DHT22;38528;53.214;6.562;2022-10-16T11:56:41;32.70;74.30
52301;DHT22;38528;53.214;6.562;2022-10-16T11:59:33;33.80;72.00
52301;DHT22;38528;53.214;6.562;2022-10-16T12:02:26;34.20;70.10
52301;DHT22;38528;53.214;6.562;2022-10-16T12:10:26;32.90;69.70
52301;DHT22;38528;53.214;6.562;2022-10-16T12:12:52;33.40;69.00
52301;DHT22;38528;53.214;6.562;2022-10-16T12:17:43;33.70;65.60
52301;DHT22;38528;53.214;6.562;2022-10-16T13:39:19;33.50;64.70
52301;DHT22;38528;53.214;6.562;2022-10-16T13:41:46;21.60;86.30
52301;DHT22;38528;53.214;6.562;2022-10-16T13:44:15;20.90;86.60
52301;DHT22;38528;53.214;6.562;2022-10-16T13:46:43;20.80;87.20
52301;DHT22;38528;53.214;6.562;2022-10-16T13:49:15;20.80;88.10
52301;DHT22;38528;53.214;6.562;2022-10-16T13:51:47;20.90;88.50
52301;DHT22;38528;53.214;6.562;2022-10-16T13:54:18;20.90;89.20
52301;DHT22;38528;53.214;6.562;2022-10-16T13:56:44;21.00;89.80
52301;DHT22;38528;53.214;6.562;2022-10-16T13:59:35;20.90;90.00
52301;DHT22;38528;53.214;6.562;2022-10-16T14:02:30;20.90;90.10
52301;DHT22;38528;53.214;6.562;2022-10-16T14:04:55;20.80;90.60
52301;DHT22;38528;53.214;6.562;2022-10-16T14:07:28;20.80;91.00
52301;DHT22;38528;53.214;6.562;2022-10-16T14:09:55;20.70;91.20
52301;DHT22;38528;53.214;6.562;2022-10-16T14:12:22;20.70;91.40
52301;DHT22;38528;53.214;6.562;2022-10-16T14:14:53;20.70;91.60
52301;DHT22;38528;53.214;6.562;2022-10-16T14:17:23;20.70;91.80
52301;DHT22;38528;53.214;6.562;2022-10-16T14:19:52;20.70;92.00
52301;DHT22;38528;53.214;6.562;2022-10-16T14:22:31;20.70;92.10
52301;DHT22;38528;53.214;6.562;2022-10-16T14:24:58;20.60;92.40
52301;DHT22;38528;53.214;6.562;2022-10-16T14:27:34;20.50;92.80
52301;DHT22;38528;53.214;6.562;2022-10-16T14:30:14;20.50;93.10
52301;DHT22;38528;53.214;6.562;2022-10-16T14:32:41;20.40;93.40
52301;DHT22;38528;53.214;6.562;2022-10-16T14:35:32;20.20;93.80
52301;DHT22;38528;53.214;6.562;2022-10-16T14:37:59;20.00;94.40
52301;DHT22;38528;53.214;6.562;2022-10-16T14:40:35;19.90;94.90
52301;DHT22;38528;53.214;6.562;2022-10-16T14:43:03;19.70;95.50
52301;DHT22;38528;53.214;6.562;2022-10-16T14:45:31;19.70;96.20
52301;DHT22;38528;53.214;6.562;2022-10-16T14:48:01;19.50;96.60
52301;DHT22;38528;53.214;6.562;2022-10-16T14:50:28;19.40;97.30
52301;DHT22;38528;53.214;6.562;2022-10-16T14:52:54;19.20;97.90
52301;DHT22;38528;53.214;6.562;2022-10-16T14:55:20;19.10;98.60
52301;DHT22;38528;53.214;6.562;2022-10-16T14:57:46;19.00;99.10
52301;DHT22;38528;53.214;6.562;2022-10-16T15:00:19;18.90;99.70
52301;DHT22;38528;53.214;6.562;2022-10-16T15:02:46;18.90;99.90
52301;DHT22;38528;53.214;6.562;2022-10-16T15:07:48;18.70;99.90
52301;DHT22;38528;53.214;6.562;2022-10-16T15:10:20;18.60;99.90
52301;DHT22;38528;53.214;6.562;2022-10-16T15:12:46;18.60;99.90
52301;DHT22;38528;53.214;6.562;2022-10-16T15:15:32;18.60;99.90
52301;DHT22;38528;53.214;6.562;2022-10-16T15:17:58;18.50;99.90
52301;DHT22;38528;53.214;6.562;2022-10-16T15:20:27;18.40;99.90
52301;DHT22;38528;53.214;6.562;2022-10-16T15:22:53;18.30;99.90
52301;DHT22;38528;53.214;6.562;2022-10-16T15:25:33;18.10;99.90
52301;DHT22;38528;53.214;6.562;2022-10-16T15:28:00;18.10;99.90
52301;DHT22;38528;53.214;6.562;2022-10-16T15:30:26;18.00;99.90
52301;DHT22;38528;53.214;6.562;2022-10-16T15:32:52;17.90;99.90
52301;DHT22;38528;53.214;6.562;2022-10-16T15:35:18;17.90;99.90
52301;DHT22;38528;53.214;6.562;2022-10-16T15:37:43;17.70;99.90
52301;DHT22;38528;53.214;6.562;2022-10-16T15:40:10;17.70;99.90
52301;DHT22;38528;53.214;6.562;2022-10-16T15:42:36;17.70;99.90
52301;DHT22;38528;53.214;6.562;2022-10-16T15:45:02;17.60;99.90
52301;DHT22;38528;53.214;6.562;2022-10-16T15:47:29;17.50;99.90
52301;DHT22;38528;53.214;6.562;2022-10-16T15:49:55;17.50;99.90
52301;DHT22;38528;53.214;6.562;2022-10-16T15:52:20;17.40;99.90
52301;DHT22;38528;53.214;6.562;2022-10-16T15:54:46;17.30;99.90
52301;DHT22;38528;53.214;6.562;2022-10-16T15:57:12;17.10;99.90
52301;DHT22;38528;53.214;6.562;2022-10-16T15:59:37;17.40;99.90
52301;DHT22;38528;53.214;6.562;2022-10-16T16:02:03;17.00;99.90
52301;DHT22;38528;53.214;6.562;2022-10-16T16:04:32;17.00;99.90
52301;DHT22;38528;53.214;6.562;2022-10-16T16:06:57;17.00;99.90
52301;DHT22;38528;53.214;6.562;2022-10-16T16:09:23;17.10;99.90
52301;DHT22;38528;53.214;6.562;2022-10-16T16:11:49;17.00;99.90
52301;DHT22;38528;53.214;6.562;2022-10-16T16:14:16;17.70;99.90
52301;DHT22;38528;53.214;6.562;2022-10-16T16:16:42;17.00;99.90
52301;DHT22;38528;53.214;6.562;2022-10-16T16:19:08;16.90;99.90
52301;DHT22;38528;53.214;6.562;2022-10-16T16:21:35;16.80;99.90
52301;DHT22;38528;53.214;6.562;2022-10-16T16:24:00;16.70;99.90
52301;DHT22;38528;53.214;6.562;2022-10-16T16:26:30;16.70;99.90
52301;DHT22;38528;53.214;6.562;2022-10-16T16:29:02;16.60;99.90
52301;DHT22;38528;53.214;6.562;2022-10-16T16:31:30;16.40;99.90
52301;DHT22;38528;53.214;6.562;2022-10-16T16:33:56;16.50;99.90
52301;DHT22;38528;53.214;6.562;2022-10-16T16:36:23;16.40;99.90
52301;DHT22;38528;53.214;6.562;2022-10-16T16:38:49;16.30;99.90
52301;DHT22;38528;53.214;6.562;2022-10-16T16:41:17;16.70;99.90
52301;DHT22;38528;53.214;6.562;2022-10-16T16:43:44;16.20;99.90
52301;DHT22;38528;53.214;6.562;2022-10-16T16:46:10;16.20;99.90
52301;DHT22;38528;53.214;6.562;2022-10-16T16:48:37;16.10;99.90
52301;DHT22;38528;53.214;6.562;2022-10-16T16:51:14;16.50;99.90
52301;DHT22;38528;53.214;6.562;2022-10-16T16:53:43;16.00;99.90
52301;DHT22;38528;53.214;6.562;2022-10-16T16:56:09;16.30;99.90
52301;DHT22;38528;53.214;6.562;2022-10-16T16:58:34;16.10;99.90
52301;DHT22;38528;53.214;6.562;2022-10-16T17:01:01;16.70;99.90
52301;DHT22;38528;53.214;6.562;2022-10-16T17:03:31;16.10;99.90
52301;DHT22;38528;53.214;6.562;2022-10-16T17:05:57;15.80;99.90
52301;DHT22;38528;53.214;6.562;2022-10-16T17:08:24;16.00;99.90
52301;DHT22;38528;53.214;6.562;2022-10-16T17:10:49;16.00;99.90
52301;DHT22;38528;53.214;6.562;2022-10-16T17:13:19;15.70;99.90
52301;DHT22;38528;53.214;6.562;2022-10-16T17:15:49;15.70;99.90
52301;DHT22;38528;53.214;6.562;2022-10-16T17:18:16;15.60;99.90
52301;DHT22;38528;53.214;6.562;2022-10-16T17:20:42;15.60;99.90
52301;DHT22;38528;53.214;6.562;2022-10-16T17:23:09;15.50;99.90
52301;DHT22;38528;53.214;6.562;2022-10-16T17:25:38;15.60;99.90
52301;DHT22;38528;53.214;6.562;2022-10-16T17:28:06;15.50;99.90
52301;DHT22;38528;53.214;6.562;2022-10-16T17:30:33;15.50;99.90
52301;DHT22;38528;53.214;6.562;2022-10-16T17:33:00;15.50;99.90
52301;DHT22;38528;53.214;6.562;2022-10-16T17:35:27;16.50;99.90
52301;DHT22;38528;53.214;6.562;2022-10-16T17:37:53;15.30;99.90
52301;DHT22;38528;53.214;6.562;2022-10-16T17:40:19;15.30;99.90
52301;DHT22;38528;53.214;6.562;2022-10-16T17:42:45;15.30;99.90
52301;DHT22;38528;53.214;6.562;2022-10-16T17:45:13;16.20;99.90
52301;DHT22;38528;53.214;6.562;2022-10-16T17:47:39;15.20;99.90
52301;DHT22;38528;53.214;6.562;2022-10-16T17:50:07;15.10;99.90
52301;DHT22;38528;53.214;6.562;2022-10-16T17:52:34;15.10;99.90
52301;DHT22;38528;53.214;6.562;2022-10-16T17:55:00;15.80;99.90
52301;DHT22;38528;53.214;6.562;2022-10-16T17:57:26;15.00;99.90
52301;DHT22;38528;53.214;6.562;2022-10-16T17:59:53;15.20;99.90
52301;DHT22;38528;53.214;6.562;2022-10-16T18:02:19;15.00;99.90
52301;DHT22;38528;53.214;6.562;2022-10-16T18:04:45;15.10;99.90
52301;DHT22;38528;53.214;6.562;2022-10-16T18:07:11;14.90;99.90
52301;DHT22;38528;53.214;6.562;2022-10-16T18:09:37;14.90;99.90
52301;DHT22;38528;53.214;6.562;2022-10-16T18:12:03;14.90;99.90
52301;DHT22;38528;53.214;6.562;2022-10-16T18:14:31;14.80;99.90
52301;DHT22;38528;53.214;6.562;2022-10-16T18:16:57;14.80;99.90
52301;DHT22;38528;53.214;6.562;2022-10-16T18:19:24;14.80;99.90
52301;DHT22;38528;53.214;6.562;2022-10-16T18:21:50;14.80;99.90
52301;DHT22;38528;53.214;6.562;2022-10-16T18:24:17;14.80;99.90
52301;DHT22;38528;53.214;6.562;2022-10-16T18:26:44;14.70;99.90
52301;DHT22;38528;53.214;6.562;2022-10-16T18:29:11;14.70;99.90
52301;DHT22;38528;53.214;6.562;2022-10-16T18:31:38;14.80;99.90
52301;DHT22;38528;53.214;6.562;2022-10-16T18:34:05;14.70;99.90
52301;DHT22;38528;53.214;6.562;2022-10-16T18:36:33;14.60;99.90
52301;DHT22;38528;53.214;6.562;2022-10-16T18:39:01;14.60;99.90
52301;DHT22;38528;53.214;6.562;2022-10-16T18:41:28;14.60;99.90
52301;DHT22;38528;53.214;6.562;2022-10-16T18:43:54;14.60;99.90
52301;DHT22;38528;53.214;6.562;2022-10-16T18:46:24;14.50;99.90
52301;DHT22;38528;53.214;6.562;2022-10-16T18:48:50;14.60;99.90
52301;DHT22;38528;53.214;6.562;2022-10-16T18:51:22;14.60;99.90
52301;DHT22;38528;53.214;6.562;2022-10-16T18:53:51;14.60;99.90
52301;DHT22;38528;53.214;6.562;2022-10-16T18:56:19;14.60;99.90
52301;DHT22;38528;53.214;6.562;2022-10-16T18:58:46;14.60;99.90
52301;DHT22;38528;53.214;6.562;2022-10-16T19:01:19;14.50;99.90
52301;DHT22;38528;53.214;6.562;2022-10-16T19:03:46;14.60;99.90
52301;DHT22;38528;53.214;6.562;2022-10-16T19:06:13;14.60;99.90
52301;DHT22;38528;53.214;6.562;2022-10-16T19:08:42;14.50;99.90
52301;DHT22;38528;53.214;6.562;2022-10-16T19:11:17;14.50;99.90
52301;DHT22;38528;53.214;6.562;2022-10-16T19:13:44;14.50;99.90
52301;DHT22;38528;53.214;6.562;2022-10-16T19:16:15;14.50;99.90
52301;DHT22;38528;53.214;6.562;2022-10-16T19:18:41;14.50;99.90
52301;DHT22;38528;53.214;6.562;2022-10-16T19:21:09;14.50;99.90
52301;DHT22;38528;53.214;6.562;2022-10-16T19:23:35;14.40;99.90
52301;DHT22;38528;53.214;6.562;2022-10-16T19:26:06;15.00;99.90
52301;DHT22;38528;53.214;6.562;2022-10-16T19:28:32;14.30;99.90
52301;DHT22;38528;53.214;6.562;2022-10-16T19:31:09;14.30;99.90
52301;DHT22;38528;53.214;6.562;2022-10-16T19:33:38;14.30;99.90
52301;DHT22;38528;53.214;6.562;2022-10-16T19:36:13;14.30;99.90
52301;DHT22;38528;53.214;6.562;2022-10-16T19:38:40;14.30;99.90
52301;DHT22;38528;53.214;6.562;2022-10-16T19:41:15;14.30;99.90
52301;DHT22;38528;53.214;6.562;2022-10-16T19:43:41;14.20;99.90
52301;DHT22;38528;53.214;6.562;2022-10-16T19:46:09;14.20;99.90
52301;DHT22;38528;53.214;6.562;2022-10-16T19:48:36;14.10;99.90
52301;DHT22;38528;53.214;6.562;2022-10-16T19:51:03;14.10;99.90
52301;DHT22;38528;53.214;6.562;2022-10-16T19:53:29;14.00;99.90
52301;DHT22;38528;53.214;6.562;2022-10-16T19:55:55;13.90;99.90
52301;DHT22;38528;53.214;6.562;2022-10-16T19:58:22;14.10;99.90
52301;DHT22;38528;53.214;6.562;2022-10-16T20:00:48;13.90;99.90
52301;DHT22;38528;53.214;6.562;2022-10-16T20:03:14;13.90;99.90
52301;DHT22;38528;53.214;6.562;2022-10-16T20:05:50;14.80;99.90
52301;DHT22;38528;53.214;6.562;2022-10-16T20:08:15;13.90;99.90
52301;DHT22;38528;53.214;6.562;2022-10-16T20:10:50;13.90;99.90
52301;DHT22;38528;53.214;6.562;2022-10-16T20:13:17;13.90;99.90
52301;DHT22;38528;53.214;6.562;2022-10-16T20:15:43;13.90;99.90
52301;DHT22;38528;53.214;6.562;2022-10-16T20:18:08;13.90;99.90
52301;DHT22;38528;53.214;6.562;2022-10-16T20:20:38;13.90;99.90